createdAt,value
2018-01-05T00:01:07.951Z,97883.00
2018-01-05T00:03:35.422Z,97891.58
2018-01-05T00:06:02.913Z,97902.42
2018-01-05T00:08:30.376Z,97910.82
2018-01-05T00:10:57.884Z,97910.91
2018-01-05T00:13:25.425Z,97912.19
2018-01-05T00:15:52.921Z,97915.91
2018-01-05T00:18:20.441Z,97917.53
2018-01-05T00:20:48.014Z,97920.15
2018-01-05T00:23:15.514Z,97914.23
2018-01-05T00:25:43.000Z,97916.02
2018-01-05T00:28:10.462Z,97925.09
2018-01-05T00:30:38.060Z,97927.72
2018-01-05T00:33:05.565Z,97915.50
2018-01-05T00:35:33.035Z,97901.71
2018-01-05T00:38:00.533Z,97909.34
2018-01-05T00:40:30.281Z,97895.34
2018-01-05T00:42:58.348Z,97918.80
2018-01-05T00:45:25.849Z,97915.42
2018-01-05T00:47:53.319Z,97922.64
2018-01-05T00:50:20.853Z,97917.55
2018-01-05T00:52:48.301Z,97924.85
2018-01-05T00:55:15.760Z,97926.11
2018-01-05T00:57:43.235Z,97921.55
2018-01-05T01:00:10.691Z,97928.80
2018-01-05T01:02:38.195Z,97931.22
2018-01-05T01:05:05.663Z,97932.88
2018-01-05T01:07:33.104Z,97939.67
2018-01-05T01:10:00.584Z,97934.06
2018-01-05T01:12:29.718Z,97933.14
2018-01-05T01:14:57.268Z,97934.94
2018-01-05T01:17:24.727Z,97935.42
2018-01-05T01:19:52.231Z,97945.02
2018-01-05T01:22:19.769Z,97955.36
2018-01-05T01:24:48.899Z,97961.88
2018-01-05T01:27:17.616Z,97958.64
2018-01-05T01:29:45.092Z,97961.64
2018-01-05T01:32:12.547Z,97965.04
2018-01-05T01:34:40.030Z,97980.33
2018-01-05T01:37:07.512Z,97998.02
2018-01-05T01:39:35.001Z,98016.85
2018-01-05T01:42:02.462Z,98036.06
2018-01-05T01:44:29.909Z,98058.62
2018-01-05T01:46:57.387Z,98000.19
2018-01-05T01:49:24.837Z,98022.06
2018-01-05T01:51:52.326Z,98045.16
2018-01-05T01:54:19.860Z,98041.70
2018-01-05T01:56:47.335Z,98042.18
2018-01-05T01:59:14.793Z,98018.87
2018-01-05T02:01:42.280Z,98000.94
2018-01-05T02:04:09.727Z,97946.55
2018-01-05T02:06:37.351Z,97974.86
2018-01-05T02:09:04.827Z,98004.05
2018-01-05T02:11:32.328Z,97997.72
2018-01-05T02:13:59.784Z,98014.81
2018-01-05T02:16:27.239Z,98034.50
2018-01-05T02:18:54.747Z,98048.05
2018-01-05T02:21:22.190Z,98037.45
2018-01-05T02:23:49.659Z,98041.20
2018-01-05T02:26:17.132Z,98047.43
2018-01-05T02:28:44.625Z,98050.95
2018-01-05T02:31:12.095Z,98037.31
2018-01-05T02:33:39.555Z,98049.63
2018-01-05T02:36:07.015Z,98065.58
2018-01-05T02:38:34.508Z,98041.92
2018-01-05T02:41:02.000Z,98034.99
2018-01-05T02:43:29.474Z,98033.02
2018-01-05T02:45:56.938Z,98038.23
2018-01-05T02:48:24.504Z,98034.70
2018-01-05T02:50:52.027Z,98036.77
2018-01-05T02:53:19.476Z,98048.14
2018-01-05T02:55:46.934Z,98070.67
2018-01-05T02:58:14.456Z,98064.17
2018-01-05T03:00:42.428Z,98064.80
2018-01-05T03:03:09.968Z,98059.44
2018-01-05T03:05:37.424Z,98058.67
2018-01-05T03:08:04.891Z,98060.64
2018-01-05T03:10:32.549Z,98060.97
2018-01-05T03:13:00.057Z,98059.11
2018-01-05T03:15:27.550Z,98060.12
2018-01-05T03:17:55.007Z,98066.22
2018-01-05T03:20:22.464Z,98065.37
2018-01-05T03:22:49.924Z,98062.12
2018-01-05T03:25:17.411Z,98058.42
2018-01-05T03:27:44.863Z,98064.72
2018-01-05T03:30:12.334Z,98069.90
2018-01-05T03:32:39.779Z,98063.56
2018-01-05T03:35:07.215Z,98068.34
2018-01-05T03:37:34.675Z,98055.16
2018-01-05T03:40:02.151Z,98053.45
2018-01-05T03:42:29.639Z,98056.02
2018-01-05T03:44:57.125Z,98040.56
2018-01-05T03:47:24.571Z,98051.22
2018-01-05T03:49:52.031Z,98050.84
2018-01-05T03:52:19.487Z,98054.24
2018-01-05T03:54:47.865Z,98061.32
2018-01-05T03:57:15.494Z,98057.46
2018-01-05T03:59:42.930Z,98061.27
2018-01-05T04:02:10.375Z,98065.80
2018-01-05T04:04:37.854Z,98071.70
2018-01-05T04:07:05.306Z,98081.39
2018-01-05T04:09:32.746Z,98083.30
2018-01-05T04:12:00.207Z,98078.20
2018-01-05T04:14:27.668Z,98073.61
2018-01-05T04:16:55.111Z,98065.97
2018-01-05T04:19:22.567Z,98090.13
2018-01-05T04:21:50.035Z,98082.88
2018-01-05T04:24:17.674Z,98088.15
2018-01-05T04:26:45.132Z,98077.30
2018-01-05T04:29:12.587Z,98083.13
2018-01-05T04:31:40.071Z,98084.23
2018-01-05T04:34:07.524Z,98097.02
2018-01-05T04:36:34.975Z,98089.68
2018-01-05T04:39:02.448Z,98083.29
2018-01-05T04:41:29.943Z,98074.80
2018-01-05T04:43:57.395Z,98065.80
2018-01-05T04:46:24.835Z,98062.31
2018-01-05T04:48:52.297Z,98066.69
2018-01-05T04:51:19.752Z,98066.13
2018-01-05T04:53:47.227Z,98084.38
2018-01-05T04:56:14.760Z,98073.58
2018-01-05T04:58:42.204Z,98075.34
2018-01-05T05:01:09.672Z,98076.70
2018-01-05T05:03:37.145Z,98081.91
2018-01-05T05:06:04.643Z,98075.94
2018-01-05T05:08:32.196Z,98081.37
2018-01-05T05:10:59.661Z,98082.78
2018-01-05T05:13:27.171Z,98079.74
2018-01-05T05:15:54.627Z,98091.14
2018-01-05T05:18:22.088Z,98099.50
2018-01-05T05:20:49.557Z,98091.83
2018-01-05T05:23:17.020Z,98097.20
2018-01-05T05:25:44.483Z,98095.11
2018-01-05T05:28:11.958Z,98097.03
2018-01-05T05:30:39.413Z,98107.97
2018-01-05T05:33:06.855Z,98126.48
2018-01-05T05:35:34.312Z,98132.16
2018-01-05T05:38:01.756Z,98121.20
2018-01-05T05:40:29.235Z,98132.96
2018-01-05T05:42:56.687Z,98134.26
2018-01-05T05:45:24.130Z,98129.61
2018-01-05T05:47:51.588Z,98135.69
2018-01-05T05:50:21.700Z,98149.87
2018-01-05T05:52:49.348Z,98150.69
2018-01-05T05:55:16.809Z,98144.76
2018-01-05T05:57:44.282Z,98173.16
2018-01-05T06:00:11.766Z,98151.95
2018-01-05T06:02:39.215Z,98149.59
2018-01-05T06:05:06.677Z,98175.69
2018-01-05T06:07:34.135Z,98176.84
2018-01-05T06:10:01.636Z,98175.84
2018-01-05T06:12:29.110Z,98195.63
2018-01-05T06:14:56.575Z,98185.86
2018-01-05T06:17:24.065Z,98195.01
2018-01-05T06:19:51.524Z,98197.73
2018-01-05T06:22:19.011Z,98200.20
2018-01-05T06:24:46.530Z,98208.54
2018-01-05T06:27:14.004Z,98207.33
2018-01-05T06:29:41.459Z,98225.55
2018-01-05T06:32:08.906Z,98224.05
2018-01-05T06:34:36.354Z,98245.16
2018-01-05T06:37:03.823Z,98252.72
2018-01-05T06:39:31.270Z,98251.23
2018-01-05T06:41:58.741Z,98249.42
2018-01-05T06:44:26.241Z,98266.23
2018-01-05T06:46:53.692Z,98261.23
2018-01-05T06:49:21.143Z,98272.83
2018-01-05T06:51:48.738Z,98283.30
2018-01-05T06:54:16.220Z,98290.91
2018-01-05T06:56:43.718Z,98293.27
2018-01-05T06:59:11.176Z,98312.50
2018-01-05T07:01:38.640Z,98303.36
2018-01-05T07:04:06.110Z,98312.56
2018-01-05T07:06:33.574Z,98303.91
2018-01-05T07:09:01.018Z,98304.50
2018-01-05T07:11:28.476Z,98314.85
2018-01-05T07:13:55.960Z,98330.27
2018-01-05T07:16:23.477Z,98342.63
2018-01-05T07:18:50.917Z,98331.09
2018-01-05T07:21:18.481Z,98327.16
2018-01-05T07:23:45.929Z,98346.45
2018-01-05T07:26:13.390Z,98344.88
2018-01-05T07:28:40.858Z,98340.09
2018-01-05T07:31:08.321Z,98370.75
2018-01-05T07:33:35.766Z,98352.36
2018-01-05T07:36:03.224Z,98364.05
2018-01-05T07:38:30.665Z,98379.70
2018-01-05T07:40:58.173Z,98363.74
2018-01-05T07:43:25.648Z,98384.69
2018-01-05T07:45:53.113Z,98384.38
2018-01-05T07:48:20.595Z,98387.06
2018-01-05T07:50:48.071Z,98397.22
2018-01-05T07:53:15.532Z,98403.72
2018-01-05T07:55:43.005Z,98401.47
2018-01-05T07:58:10.731Z,98404.19
2018-01-05T08:00:38.188Z,98415.88
2018-01-05T08:03:05.619Z,98412.92
2018-01-05T08:05:33.092Z,98406.74
2018-01-05T08:08:00.533Z,98410.75
2018-01-05T08:10:28.151Z,98417.81
2018-01-05T08:12:55.633Z,98419.17
2018-01-05T08:15:23.138Z,98417.91
2018-01-05T08:17:50.556Z,98427.62
2018-01-05T08:20:18.041Z,98411.67
2018-01-05T08:22:45.681Z,98415.59
2018-01-05T08:25:13.192Z,98414.38
2018-01-05T08:27:46.391Z,98424.48
2018-01-05T08:30:13.876Z,98427.81
2018-01-05T08:32:41.331Z,98434.23
2018-01-05T08:35:08.783Z,98430.33
2018-01-05T08:37:36.302Z,98418.00
2018-01-05T08:40:03.826Z,98416.58
2018-01-05T08:42:31.282Z,98420.05
2018-01-05T08:44:58.744Z,98422.42
2018-01-05T08:47:26.190Z,98423.80
2018-01-05T08:49:53.655Z,98435.11
2018-01-05T08:52:21.283Z,98436.05
2018-01-05T08:54:48.771Z,98420.19
2018-01-05T08:57:16.425Z,98427.94
2018-01-05T08:59:43.932Z,98436.27
2018-01-05T09:02:11.392Z,98440.77
2018-01-05T09:04:38.914Z,98439.30
2018-01-05T09:07:06.477Z,98445.27
2018-01-05T09:09:33.973Z,98455.22
2018-01-05T09:12:01.448Z,98461.59
2018-01-05T09:14:29.658Z,98451.01
2018-01-05T09:16:57.132Z,98456.61
2018-01-05T09:19:24.603Z,98448.45
2018-01-05T09:21:52.063Z,98448.77
2018-01-05T09:24:19.527Z,98454.06
2018-01-05T09:26:47.007Z,98458.69
2018-01-05T09:29:14.504Z,98456.00
2018-01-05T09:31:41.971Z,98465.77
2018-01-05T09:34:09.430Z,98476.63
2018-01-05T09:36:36.896Z,98470.23
2018-01-05T09:39:04.404Z,98475.83
2018-01-05T09:41:31.878Z,98473.50
2018-01-05T09:43:59.387Z,98480.27
2018-01-05T09:46:26.843Z,98483.50
2018-01-05T09:48:54.303Z,98482.39
2018-01-05T09:51:22.506Z,98488.31
2018-01-05T09:53:49.983Z,98484.24
2018-01-05T09:56:17.708Z,98480.52
2018-01-05T09:58:45.249Z,98477.02
2018-01-05T10:01:12.688Z,98480.52
2018-01-05T10:03:40.146Z,98469.67
2018-01-05T10:06:07.627Z,98468.92
2018-01-05T10:08:35.308Z,98465.84
2018-01-05T10:11:02.836Z,98458.52
2018-01-05T10:13:30.372Z,98449.37
2018-01-05T10:15:57.857Z,98450.44
2018-01-05T10:18:25.695Z,98449.21
2018-01-05T10:20:53.213Z,98439.00
2018-01-05T10:23:20.651Z,98446.41
2018-01-05T10:25:48.219Z,98442.52
2018-01-05T10:28:15.801Z,98438.27
2018-01-05T10:30:43.861Z,98446.48
2018-01-05T10:33:11.307Z,98446.28
2018-01-05T10:35:38.766Z,98436.94
2018-01-05T10:38:06.304Z,98435.53
2018-01-05T10:40:33.811Z,98435.86
2018-01-05T10:43:01.300Z,98425.77
2018-01-05T10:45:28.779Z,98407.17
2018-01-05T10:47:56.266Z,98408.20
2018-01-05T10:50:23.723Z,98411.34
2018-01-05T10:52:51.204Z,98417.73
2018-01-05T10:55:18.709Z,98405.27
2018-01-05T10:57:46.180Z,98401.95
2018-01-05T11:00:13.668Z,98400.00
2018-01-05T11:02:41.113Z,98400.95
2018-01-05T11:05:08.555Z,98408.47
2018-01-05T11:07:36.037Z,98414.87
2018-01-05T11:10:03.545Z,98414.36
2018-01-05T11:12:31.025Z,98418.02
2018-01-05T11:14:58.506Z,98411.91
2018-01-05T11:17:25.961Z,98414.02
2018-01-05T11:19:53.460Z,98420.38
2018-01-05T11:22:20.996Z,98419.48
2018-01-05T11:24:48.494Z,98411.20
2018-01-05T11:27:15.980Z,98415.48
2018-01-05T11:29:43.468Z,98411.30
2018-01-05T11:32:11.032Z,98409.14
2018-01-05T11:34:38.560Z,98402.55
2018-01-05T11:37:06.049Z,98399.92
2018-01-05T11:39:33.589Z,98404.48
2018-01-05T11:42:01.055Z,98392.09
2018-01-05T11:44:28.543Z,98409.77
2018-01-05T11:46:56.155Z,98408.95
2018-01-05T11:49:23.626Z,98404.92
2018-01-05T11:51:51.096Z,98419.54
2018-01-05T11:54:18.593Z,98419.94
2018-01-05T11:56:46.087Z,98418.97
2018-01-05T11:59:14.392Z,98414.02
2018-01-05T12:01:41.965Z,98426.03
2018-01-05T12:04:10.140Z,98430.83
2018-01-05T12:06:37.699Z,98426.65
2018-01-05T12:09:05.215Z,98425.70
2018-01-05T12:11:32.723Z,98434.38
2018-01-05T12:14:00.208Z,98426.11
2018-01-05T12:16:27.846Z,98427.03
2018-01-05T12:18:56.688Z,98427.59
2018-01-05T12:21:24.153Z,98426.02
2018-01-05T12:23:51.666Z,98417.78
2018-01-05T12:26:19.196Z,98417.91
2018-01-05T12:28:46.648Z,98421.03
2018-01-05T12:31:14.115Z,98417.89
2018-01-05T12:33:41.563Z,98412.40
2018-01-05T12:36:09.024Z,98412.92
2018-01-05T12:38:36.632Z,98401.82
2018-01-05T12:41:04.214Z,98413.30
2018-01-05T12:43:31.682Z,98416.42
2018-01-05T12:45:59.143Z,98419.11
2018-01-05T12:48:26.816Z,98421.30
2018-01-05T12:50:54.279Z,98420.69
2018-01-05T12:53:21.747Z,98425.95
2018-01-05T12:55:49.251Z,98425.57
2018-01-05T12:58:17.058Z,98425.64
2018-01-05T13:00:44.650Z,98428.41
2018-01-05T13:03:12.164Z,98425.20
2018-01-05T13:05:39.696Z,98430.42
2018-01-05T13:08:07.289Z,98421.58
2018-01-05T13:10:34.941Z,98420.46
2018-01-05T13:13:02.409Z,98423.27
2018-01-05T13:15:29.864Z,98432.03
2018-01-05T13:17:57.325Z,98417.08
2018-01-05T13:20:24.793Z,98424.23
2018-01-05T13:22:52.270Z,98424.32
2018-01-05T13:25:19.751Z,98436.41
2018-01-05T13:27:47.299Z,98435.42
2018-01-05T13:30:14.800Z,98437.37
2018-01-05T13:32:42.379Z,98446.88
2018-01-05T13:35:09.857Z,98444.19
2018-01-05T13:37:37.329Z,98453.70
2018-01-05T13:40:04.786Z,98460.81
2018-01-05T13:42:32.232Z,98464.38
2018-01-05T13:44:59.719Z,98461.11
2018-01-05T13:47:27.184Z,98461.14
2018-01-05T13:49:54.695Z,98459.83
2018-01-05T13:52:22.175Z,98458.17
2018-01-05T13:54:49.847Z,98454.19
2018-01-05T13:57:17.466Z,98457.39
2018-01-05T13:59:45.785Z,98462.34
2018-01-05T14:02:13.256Z,98460.59
2018-01-05T14:04:40.725Z,98441.70
2018-01-05T14:07:08.188Z,98437.53
2018-01-05T14:09:35.657Z,98445.87
2018-01-05T14:12:03.168Z,98462.16
2018-01-05T14:14:30.758Z,98470.42
2018-01-05T14:16:58.256Z,98475.70
2018-01-05T14:19:25.752Z,98475.81
2018-01-05T14:21:53.222Z,98468.20
2018-01-05T14:24:20.707Z,98473.92
2018-01-05T14:26:48.224Z,98470.70
2018-01-05T14:29:15.684Z,98482.70
2018-01-05T14:31:43.161Z,98481.10
2018-01-05T14:34:10.776Z,98482.91
2018-01-05T14:36:38.326Z,98480.83
2018-01-05T14:39:05.828Z,98484.31
2018-01-05T14:41:33.334Z,98486.12
2018-01-05T14:44:00.817Z,98488.40
2018-01-05T14:46:28.356Z,98493.55
2018-01-05T14:48:55.842Z,98494.27
2018-01-05T14:51:23.340Z,98497.51
2018-01-05T14:53:50.845Z,98500.27
2018-01-05T14:56:18.476Z,98490.88
2018-01-05T14:58:45.972Z,98491.53
2018-01-05T15:01:13.457Z,98494.30
2018-01-05T15:03:40.972Z,98491.48
2018-01-05T15:06:08.489Z,98495.39
2018-01-05T15:08:36.105Z,98494.64
2018-01-05T15:11:03.565Z,98484.91
2018-01-05T15:13:31.080Z,98480.73
2018-01-05T15:15:58.588Z,98481.61
2018-01-05T15:18:26.168Z,98477.06
2018-01-05T15:20:53.637Z,98475.58
2018-01-05T15:23:21.159Z,98471.05
2018-01-05T15:25:48.645Z,98464.81
2018-01-05T15:28:16.708Z,98469.14
2018-01-05T15:30:44.209Z,98478.86
2018-01-05T15:33:11.664Z,98477.36
2018-01-05T15:35:39.160Z,98483.41
2018-01-05T15:38:06.645Z,98479.29
2018-01-05T15:40:34.589Z,98481.01
2018-01-05T15:43:02.113Z,98477.31
2018-01-05T15:45:29.604Z,98476.05
2018-01-05T15:47:57.091Z,98477.45
2018-01-05T15:50:24.569Z,98473.30
2018-01-05T15:52:52.051Z,98473.78
2018-01-05T15:55:21.116Z,98476.34
2018-01-05T15:57:48.579Z,98488.03
2018-01-05T16:00:16.092Z,98478.19
2018-01-05T16:02:43.586Z,98487.66
2018-01-05T16:05:11.057Z,98482.63
2018-01-05T16:07:38.613Z,98498.52
2018-01-05T16:10:06.101Z,98494.44
2018-01-05T16:12:34.242Z,98476.23
2018-01-05T16:15:01.721Z,98475.02
2018-01-05T16:17:29.225Z,98470.01
2018-01-05T16:19:56.682Z,98467.09
2018-01-05T16:22:24.157Z,98473.27
2018-01-05T16:24:51.660Z,98468.71
2018-01-05T16:27:19.158Z,98466.25
2018-01-05T16:29:46.631Z,98462.55
2018-01-05T16:32:14.106Z,98456.26
2018-01-05T16:34:41.560Z,98458.51
2018-01-05T16:37:09.048Z,98454.75
2018-01-05T16:39:36.694Z,98456.03
2018-01-05T16:42:04.274Z,98456.52
2018-01-05T16:44:31.772Z,98452.26
2018-01-05T16:46:59.266Z,98454.81
2018-01-05T16:49:26.766Z,98461.61
2018-01-05T16:51:54.307Z,98451.80
2018-01-05T16:54:21.816Z,98443.63
2018-01-05T16:56:49.283Z,98438.96
2018-01-05T16:59:16.765Z,98434.38
2018-01-05T17:01:44.284Z,98434.10
2018-01-05T17:04:11.750Z,98429.92
2018-01-05T17:06:39.304Z,98407.47
2018-01-05T17:09:06.826Z,98389.41
2018-01-05T17:11:35.168Z,98379.30
2018-01-05T17:14:02.656Z,98373.84
2018-01-05T17:16:30.107Z,98374.70
2018-01-05T17:18:57.613Z,98380.30
2018-01-05T17:21:25.093Z,98390.10
2018-01-05T17:23:52.623Z,98401.02
2018-01-05T17:26:20.149Z,98400.18
2018-01-05T17:28:47.610Z,98410.91
2018-01-05T17:31:15.073Z,98425.62
2018-01-05T17:33:42.592Z,98432.42
2018-01-05T17:36:10.041Z,98458.86
2018-01-05T17:38:38.218Z,98472.09
2018-01-05T17:41:05.695Z,98470.37
2018-01-05T17:43:33.186Z,98462.40
2018-01-05T17:46:00.716Z,98452.27
2018-01-05T17:48:28.282Z,98456.14
2018-01-05T17:50:55.761Z,98461.11
2018-01-05T17:53:23.244Z,98460.27
2018-01-05T17:55:50.724Z,98458.14
2018-01-05T17:58:18.188Z,98453.88
2018-01-05T18:00:46.748Z,98450.92
2018-01-05T18:03:14.295Z,98455.59
2018-01-05T18:05:41.887Z,98455.16
2018-01-05T18:08:09.390Z,98457.64
2018-01-05T18:10:36.949Z,98454.56
2018-01-05T18:13:04.482Z,98458.86
2018-01-05T18:15:31.980Z,98465.78
2018-01-05T18:17:59.492Z,98473.59
2018-01-05T18:20:26.989Z,98480.08
2018-01-05T18:22:54.463Z,98471.61
2018-01-05T18:25:21.972Z,98478.87
2018-01-05T18:27:49.426Z,98469.65
2018-01-05T18:30:16.884Z,98464.22
2018-01-05T18:32:44.487Z,98455.83
2018-01-05T18:35:12.013Z,98465.17
2018-01-05T18:37:39.543Z,98467.72
2018-01-05T18:40:07.005Z,98466.08
2018-01-05T18:42:34.499Z,98466.12
2018-01-05T18:45:02.018Z,98482.73
2018-01-05T18:47:29.717Z,98483.63
2018-01-05T18:49:58.155Z,98482.80
2018-01-05T18:52:25.662Z,98481.09
2018-01-05T18:54:53.223Z,98480.66
2018-01-05T18:57:20.851Z,98493.03
2018-01-05T18:59:48.341Z,98485.49
2018-01-05T19:02:15.914Z,98476.17
2018-01-05T19:04:43.468Z,98468.59
2018-01-05T19:07:10.950Z,98469.93
2018-01-05T19:09:38.449Z,98473.38
2018-01-05T19:12:06.006Z,98473.89
2018-01-05T19:14:34.636Z,98471.31
2018-01-05T19:17:02.171Z,98474.80
2018-01-05T19:19:29.728Z,98481.59
2018-01-05T19:21:57.212Z,98476.50
2018-01-05T19:24:24.738Z,98471.36
2018-01-05T19:26:52.309Z,98466.65
2018-01-05T19:29:19.851Z,98465.69
2018-01-05T19:31:47.495Z,98459.70
2018-01-05T19:34:15.487Z,98460.53
2018-01-05T19:36:43.076Z,98459.63
2018-01-05T19:39:11.440Z,98460.00
2018-01-05T19:41:38.951Z,98452.02
2018-01-05T19:44:06.497Z,98450.24
2018-01-05T19:46:34.120Z,98462.19
2018-01-05T19:49:01.659Z,98459.31
2018-01-05T19:51:29.297Z,98458.10
2018-01-05T19:53:57.737Z,98455.19
2018-01-05T19:56:25.271Z,98451.43
2018-01-05T19:58:52.773Z,98462.93
2018-01-05T20:01:20.309Z,98458.64
2018-01-05T20:03:47.810Z,98462.89
2018-01-05T20:06:15.352Z,98456.52
2018-01-05T20:08:42.843Z,98459.08
2018-01-05T20:11:10.332Z,98482.80
2018-01-05T20:13:37.806Z,98480.14
2018-01-05T20:16:05.287Z,98463.63
2018-01-05T20:18:32.807Z,98459.81
2018-01-05T20:21:00.371Z,98475.91
2018-01-05T20:23:27.856Z,98476.77
2018-01-05T20:25:55.343Z,98496.20
2018-01-05T20:28:28.705Z,98499.34
2018-01-05T20:30:56.264Z,98486.61
2018-01-05T20:33:24.610Z,98509.93
2018-01-05T20:35:52.571Z,98493.81
2018-01-05T20:38:20.382Z,98501.39
2018-01-05T20:40:48.012Z,98510.79
2018-01-05T20:43:15.645Z,98514.65
2018-01-05T20:45:43.457Z,98519.74
2018-01-05T20:48:11.117Z,98510.47
2018-01-05T20:50:38.847Z,98506.28
2018-01-05T20:53:06.610Z,98502.95
2018-01-05T20:55:34.251Z,98508.13
2018-01-05T20:58:01.910Z,98512.80
2018-01-05T21:00:29.619Z,98511.94
2018-01-05T21:02:57.355Z,98520.48
2018-01-05T21:05:25.096Z,98527.84
2018-01-05T21:07:52.674Z,98533.92
2018-01-05T21:10:20.179Z,98535.73
2018-01-05T21:12:48.116Z,98545.18
2018-01-05T21:15:15.704Z,98541.33
2018-01-05T21:17:43.174Z,98551.97
2018-01-05T21:20:10.670Z,98555.36
2018-01-05T21:22:38.220Z,98555.87
2018-01-05T21:25:06.809Z,98553.42
2018-01-05T21:27:34.284Z,98559.78
2018-01-05T21:30:01.777Z,98548.34
2018-01-05T21:32:29.263Z,98544.48
2018-01-05T21:34:56.779Z,98553.84
2018-01-05T21:37:24.256Z,98556.86
2018-01-05T21:39:51.730Z,98557.67
2018-01-05T21:42:19.228Z,98554.03
2018-01-05T21:44:46.689Z,98551.57
2018-01-05T21:47:14.173Z,98545.31
2018-01-05T21:49:41.673Z,98537.78
2018-01-05T21:52:09.164Z,98531.05
2018-01-05T21:54:36.648Z,98534.91
2018-01-05T21:57:04.212Z,98543.45
2018-01-05T21:59:31.713Z,98546.41
2018-01-05T22:01:59.428Z,98549.92
2018-01-05T22:04:26.910Z,98556.31
2018-01-05T22:06:55.072Z,98553.89
2018-01-05T22:09:22.544Z,98552.70
2018-01-05T22:11:50.176Z,98556.14
2018-01-05T22:14:17.744Z,98559.63
2018-01-05T22:16:45.233Z,98556.32
2018-01-05T22:19:12.692Z,98566.12
2018-01-05T22:21:40.172Z,98563.62
2018-01-05T22:24:07.686Z,98558.58
2018-01-05T22:26:35.306Z,98557.77
2018-01-05T22:29:02.812Z,98564.17
2018-01-05T22:31:30.282Z,98571.43
2018-01-05T22:33:57.762Z,98586.30
2018-01-05T22:36:25.242Z,98595.66
2018-01-05T22:38:52.725Z,98599.91
2018-01-05T22:41:20.200Z,98595.66
2018-01-05T22:43:47.743Z,98593.97
2018-01-05T22:46:15.537Z,98588.08
2018-01-05T22:48:43.001Z,98594.03
2018-01-05T22:51:10.573Z,98591.97
2018-01-05T22:53:38.031Z,98592.39
2018-01-05T22:56:05.557Z,98577.63
2018-01-05T22:58:33.052Z,98581.88
2018-01-05T23:01:00.534Z,98587.44
2018-01-05T23:03:28.026Z,98592.95
2018-01-05T23:05:55.713Z,98597.16
2018-01-05T23:08:23.176Z,98594.20
2018-01-05T23:10:50.625Z,98592.93
2018-01-05T23:13:18.105Z,98588.70
2018-01-05T23:15:45.641Z,98582.33
2018-01-05T23:18:13.312Z,98584.90
2018-01-05T23:20:40.793Z,98586.20
2018-01-05T23:23:08.283Z,98589.18
2018-01-05T23:25:35.769Z,98595.97
2018-01-05T23:28:03.248Z,98592.59
2018-01-05T23:30:30.716Z,98592.22
2018-01-05T23:32:58.204Z,98592.64
2018-01-05T23:35:25.678Z,98596.42
2018-01-05T23:37:53.169Z,98600.22
2018-01-05T23:40:20.694Z,98597.71
2018-01-05T23:42:48.153Z,98589.73
2018-01-05T23:45:15.739Z,98589.77
2018-01-05T23:47:43.308Z,98585.16
2018-01-05T23:50:10.783Z,98578.90
2018-01-05T23:52:38.259Z,98592.84
2018-01-05T23:55:05.749Z,98593.20
2018-01-05T23:57:33.286Z,98586.95
